Time;durP1;ratioP1;P1;durP2;ratioP2;P2;SDS_P1;SDS_P2;PMS_P1;PMS_P2;Temp;Humidity;BMP_temperature;BMP_pressure;BME280_temperature;BME280_humidity;BME280_pressure;Samples;Min_cycle;Max_cycle;Signal;HPM_P1;HPM_P2
2021/12/18 00:02:22;;;;;;;22.63;13.80;;;;;;;;;;5094068;28;20451;-74
2021/12/18 00:04:48;;;;;;;26.20;15.13;;;;;;;;;;5094385;28;20401;-74
2021/12/18 00:07:14;;;;;;;24.03;13.77;;;;;;;;;;5093115;28;20401;-74
2021/12/18 00:09:41;;;;;;;22.80;14.03;;;;;;;;;;5094216;28;20423;-74
2021/12/18 00:12:07;;;;;;;21.20;13.70;;;;;;;;;;5094219;28;20400;-74
2021/12/18 00:14:33;;;;;;;26.20;14.73;;;;;;;;;;5094187;28;20392;-75
2021/12/18 00:17:00;;;;;;;25.77;14.40;;;;;;;;;;5094133;28;20405;-72
2021/12/18 00:19:27;;;;;;;26.10;15.50;;;;;;;;;;5094073;28;20402;-74
2021/12/18 00:21:54;;;;;;;24.70;14.60;;;;;;;;;;5092482;28;20463;-75
2021/12/18 00:24:20;;;;;;;27.67;15.27;;;;;;;;;;5094092;28;20972;-75
2021/12/18 00:26:46;;;;;;;23.33;14.47;;;;;;;;;;5093929;28;20422;-72
2021/12/18 00:29:12;;;;;;;23.13;14.03;;;;;;;;;;5093974;28;20886;-73
2021/12/18 00:31:38;;;;;;;22.70;14.20;;;;;;;;;;5093828;28;20421;-73
2021/12/18 00:34:04;;;;;;;24.13;13.93;;;;;;;;;;5093852;28;20404;-73
2021/12/18 00:36:30;;;;;;;24.07;15.10;;;;;;;;;;5093842;28;20417;-73
2021/12/18 00:38:56;;;;;;;21.67;13.70;;;;;;;;;;5093455;28;20412;-73
2021/12/18 00:44:02;;;;;;;20.37;13.30;;;;;;;;;;5093604;28;20432;-73
2021/12/18 00:46:29;;;;;;;21.73;12.80;;;;;;;;;;5093730;28;20400;-73
2021/12/18 00:48:55;;;;;;;25.50;14.77;;;;;;;;;;5093560;28;20415;-73
2021/12/18 00:51:21;;;;;;;22.67;13.33;;;;;;;;;;5092927;28;20886;-73
2021/12/18 00:53:47;;;;;;;24.07;14.73;;;;;;;;;;5093593;28;20461;-73
2021/12/18 00:56:13;;;;;;;21.97;13.47;;;;;;;;;;5091996;28;21028;-73
2021/12/18 00:58:39;;;;;;;21.40;13.70;;;;;;;;;;5093487;28;20460;-73
2021/12/18 01:01:09;;;;;;;20.70;13.10;;;;;;;;;;5093489;28;20405;-73
2021/12/18 01:03:35;;;;;;;25.77;13.67;;;;;;;;;;5092208;28;20472;-73
2021/12/18 01:06:02;;;;;;;23.20;14.00;;;;;;;;;;5093375;28;20754;-73
2021/12/18 01:08:28;;;;;;;22.37;13.07;;;;;;;;;;5093202;28;20509;-73
2021/12/18 01:13:38;;;;;;;22.87;13.90;;;;;;;;;;5093225;28;20441;-74
2021/12/18 01:16:13;;;;;;;24.30;13.40;;;;;;;;;;5093416;28;20408;-73
2021/12/18 01:24:09;;;;;;;25.40;13.30;;;;;;;;;;5093588;28;20435;-73
2021/12/18 01:26:35;;;;;;;21.60;12.70;;;;;;;;;;5093193;28;20407;-74
2021/12/18 01:29:01;;;;;;;22.70;14.60;;;;;;;;;;5093246;28;20396;-73
2021/12/18 01:31:27;;;;;;;22.43;12.77;;;;;;;;;;5091742;28;20419;-73
2021/12/18 01:33:53;;;;;;;24.97;14.00;;;;;;;;;;5093060;28;20755;-73
2021/12/18 01:36:20;;;;;;;21.83;12.53;;;;;;;;;;5093104;28;20438;-73
2021/12/18 01:38:46;;;;;;;22.60;12.80;;;;;;;;;;5091465;28;20451;-73
2021/12/18 01:41:14;;;;;;;20.13;12.60;;;;;;;;;;5091562;28;20420;-73
2021/12/18 01:54:40;;;;;;;22.60;12.77;;;;;;;;;;5092906;28;20391;-73
2021/12/18 01:57:06;;;;;;;22.53;13.90;;;;;;;;;;5091391;28;20459;-73
2021/12/18 01:59:37;;;;;;;25.43;13.80;;;;;;;;;;5091592;28;20412;-73
2021/12/18 02:02:03;;;;;;;20.60;13.60;;;;;;;;;;5094006;28;20597;-73
2021/12/18 02:04:29;;;;;;;23.50;14.00;;;;;;;;;;5095378;28;20431;-73
2021/12/18 02:06:55;;;;;;;24.80;14.60;;;;;;;;;;5096649;28;20401;-73
2021/12/18 02:09:25;;;;;;;22.50;14.07;;;;;;;;;;5096479;28;20481;-73
2021/12/18 02:11:53;;;;;;;24.67;14.30;;;;;;;;;;5095379;28;20768;-73
2021/12/18 02:14:36;;;;;;;22.00;13.50;;;;;;;;;;5095319;28;20417;-73
2021/12/18 02:20:52;;;;;;;25.87;14.83;;;;;;;;;;5058886;28;20810;-73
2021/12/18 02:22:59;;;;;;;26.40;14.17;;;;;;;;;;5090222;28;20467;-73
2021/12/18 02:25:25;;;;;;;27.33;15.30;;;;;;;;;;5096380;28;20413;-73
2021/12/18 02:27:52;;;;;;;26.00;14.50;;;;;;;;;;5095049;28;20544;-73
2021/12/18 02:30:22;;;;;;;25.27;14.70;;;;;;;;;;5096259;28;20910;-74
2021/12/18 02:32:51;;;;;;;29.13;15.50;;;;;;;;;;5096070;28;20988;-73
2021/12/18 02:35:31;;;;;;;24.73;15.27;;;;;;;;;;5094900;28;20423;-73
2021/12/18 02:38:10;;;;;;;26.37;15.93;;;;;;;;;;5094668;28;20940;-73
2021/12/18 02:41:00;;;;;;;23.20;14.50;;;;;;;;;;5096022;28;20772;-73
2021/12/18 02:43:28;;;;;;;25.97;14.83;;;;;;;;;;5095992;28;20469;-73
2021/12/18 02:45:59;;;;;;;25.47;15.07;;;;;;;;;;5095956;28;20985;-73
2021/12/18 02:48:24;;;;;;;24.27;13.47;;;;;;;;;;5096012;28;20918;-73
2021/12/18 02:50:51;;;;;;;21.17;13.50;;;;;;;;;;5095810;28;20401;-73
2021/12/18 02:53:17;;;;;;;22.60;13.30;;;;;;;;;;5094394;28;21017;-73
2021/12/18 02:55:43;;;;;;;22.80;12.93;;;;;;;;;;5095707;28;20404;-73
2021/12/18 02:58:09;;;;;;;23.50;14.17;;;;;;;;;;5095532;28;20457;-73
2021/12/18 03:00:35;;;;;;;25.07;13.80;;;;;;;;;;5094392;28;20420;-73
2021/12/18 03:03:07;;;;;;;24.60;14.10;;;;;;;;;;5094165;28;20468;-73
2021/12/18 03:05:40;;;;;;;23.83;13.17;;;;;;;;;;5095681;28;20429;-73
2021/12/18 03:08:13;;;;;;;26.13;14.33;;;;;;;;;;5094264;28;20865;-73
2021/12/18 03:24:22;;;;;;;24.67;13.47;;;;;;;;;;5095157;28;20480;-73
2021/12/18 03:26:48;;;;;;;21.93;13.43;;;;;;;;;;5093896;28;21187;-73
2021/12/18 03:29:14;;;;;;;22.87;13.30;;;;;;;;;;5095161;28;20409;-73
2021/12/18 03:31:40;;;;;;;24.50;14.47;;;;;;;;;;5094977;28;20410;-72
2021/12/18 03:34:06;;;;;;;21.50;13.00;;;;;;;;;;5093736;28;20411;-73
2021/12/18 03:36:32;;;;;;;24.30;13.77;;;;;;;;;;5094983;28;20401;-72
2021/12/18 03:38:59;;;;;;;23.57;13.80;;;;;;;;;;5094786;28;20511;-72
2021/12/18 03:41:25;;;;;;;22.60;12.67;;;;;;;;;;5093448;28;20508;-73
2021/12/18 03:43:51;;;;;;;22.23;13.00;;;;;;;;;;5093424;28;21066;-73
2021/12/18 03:46:17;;;;;;;23.40;12.97;;;;;;;;;;5094780;28;20402;-72
2021/12/18 03:48:43;;;;;;;23.63;12.47;;;;;;;;;;5094739;28;20415;-72
2021/12/18 03:51:10;;;;;;;24.50;13.27;;;;;;;;;;5093319;28;20963;-73
2021/12/18 03:53:36;;;;;;;24.57;12.60;;;;;;;;;;5094663;28;20409;-72
2021/12/18 03:56:02;;;;;;;25.30;13.33;;;;;;;;;;5094275;28;20496;-72
2021/12/18 03:58:28;;;;;;;24.33;13.13;;;;;;;;;;5094279;28;20466;-72
2021/12/18 04:00:54;;;;;;;22.60;13.03;;;;;;;;;;5094487;28;20736;-73
2021/12/18 04:03:20;;;;;;;25.20;14.80;;;;;;;;;;5093135;28;20483;-73
2021/12/18 04:05:46;;;;;;;25.57;13.63;;;;;;;;;;5094363;28;20400;-73
2021/12/18 04:08:12;;;;;;;25.83;13.90;;;;;;;;;;5094179;28;20788;-73
2021/12/18 04:10:39;;;;;;;23.10;11.93;;;;;;;;;;5094274;28;20466;-73
2021/12/18 04:13:06;;;;;;;26.43;14.17;;;;;;;;;;5094254;28;20945;-73
2021/12/18 04:15:32;;;;;;;26.93;13.77;;;;;;;;;;5092900;28;20425;-73
2021/12/18 04:17:58;;;;;;;21.97;12.33;;;;;;;;;;5094162;28;20409;-73
2021/12/18 04:20:24;;;;;;;21.73;11.90;;;;;;;;;;5094053;28;20477;-73
2021/12/18 04:22:50;;;;;;;24.07;12.30;;;;;;;;;;5093848;28;20461;-73
2021/12/18 04:25:16;;;;;;;23.20;12.07;;;;;;;;;;5093086;28;20406;-73
2021/12/18 04:27:42;;;;;;;23.30;12.13;;;;;;;;;;5093979;28;20405;-73
2021/12/18 04:30:09;;;;;;;23.73;11.57;;;;;;;;;;5093969;28;20404;-73
2021/12/18 04:32:35;;;;;;;21.20;10.60;;;;;;;;;;5093836;28;20887;-73
2021/12/18 04:35:01;;;;;;;23.80;11.83;;;;;;;;;;5093874;28;20455;-73
2021/12/18 04:37:27;;;;;;;28.37;12.90;;;;;;;;;;5092552;28;20508;-73
2021/12/18 04:39:53;;;;;;;24.38;11.85;;;;;;;;;;5093600;28;20404;-74
2021/12/18 04:42:20;;;;;;;26.45;12.85;;;;;;;;;;5093616;28;20215;-73
2021/12/18 04:44:46;;;;;;;24.60;11.13;;;;;;;;;;5093803;28;20167;-74
2021/12/18 04:47:12;;;;;;;24.02;11.48;;;;;;;;;;5093667;28;20405;-74
2021/12/18 04:49:39;;;;;;;23.40;11.80;;;;;;;;;;5093626;28;20167;-74
2021/12/18 04:52:05;;;;;;;22.00;12.03;;;;;;;;;;5092193;28;20515;-74
2021/12/18 04:54:31;;;;;;;23.93;11.97;;;;;;;;;;5093520;28;20416;-73
2021/12/18 04:56:58;;;;;;;23.03;12.30;;;;;;;;;;5093332;28;20943;-73
2021/12/18 04:59:24;;;;;;;24.30;12.77;;;;;;;;;;5093342;28;20492;-74
2021/12/18 05:01:51;;;;;;;24.03;12.57;;;;;;;;;;5093282;28;20423;-73
2021/12/18 05:04:17;;;;;;;25.33;12.57;;;;;;;;;;5093445;28;20416;-74
2021/12/18 05:06:46;;;;;;;25.23;12.17;;;;;;;;;;5093471;28;20404;-74
2021/12/18 05:09:13;;;;;;;22.40;11.53;;;;;;;;;;5093378;28;20442;-73
2021/12/18 05:11:40;;;;;;;18.50;10.17;;;;;;;;;;5093266;28;20814;-74
2021/12/18 05:14:06;;;;;;;20.73;10.67;;;;;;;;;;5093239;28;20396;-73
2021/12/18 05:16:32;;;;;;;19.70;10.67;;;;;;;;;;5093209;28;20526;-73
2021/12/18 05:18:58;;;;;;;25.00;11.43;;;;;;;;;;5093192;28;20876;-73
2021/12/18 05:21:24;;;;;;;20.83;10.97;;;;;;;;;;5093191;28;20416;-73
2021/12/18 05:23:50;;;;;;;17.83;9.60;;;;;;;;;;5093108;28;20487;-73
2021/12/18 05:26:17;;;;;;;21.97;11.27;;;;;;;;;;5093253;28;20424;-73
2021/12/18 05:28:43;;;;;;;22.67;10.90;;;;;;;;;;5091935;28;20491;-73
2021/12/18 05:31:09;;;;;;;22.83;11.00;;;;;;;;;;5093026;28;20397;-73
2021/12/18 05:33:36;;;;;;;19.60;10.70;;;;;;;;;;5093103;28;20450;-73
2021/12/18 05:36:13;;;;;;;21.50;10.43;;;;;;;;;;5093180;28;20458;-73
2021/12/18 05:38:39;;;;;;;18.30;9.43;;;;;;;;;;5095817;28;20476;-73
2021/12/18 05:41:05;;;;;;;21.50;12.17;;;;;;;;;;5097142;28;20428;-74
2021/12/18 05:43:31;;;;;;;23.37;10.73;;;;;;;;;;5095834;28;20486;-73
2021/12/18 05:45:57;;;;;;;22.70;11.67;;;;;;;;;;5095894;28;20413;-73
2021/12/18 05:48:23;;;;;;;20.33;11.10;;;;;;;;;;5097079;28;20762;-73
2021/12/18 05:50:49;;;;;;;22.77;10.27;;;;;;;;;;5097025;28;20403;-74
2021/12/18 05:53:15;;;;;;;18.73;10.20;;;;;;;;;;5096921;28;20879;-73
2021/12/18 05:55:41;;;;;;;19.73;10.17;;;;;;;;;;5097028;28;20403;-73
2021/12/18 05:58:08;;;;;;;18.80;10.97;;;;;;;;;;5096743;28;20547;-73
2021/12/18 06:00:34;;;;;;;21.67;11.33;;;;;;;;;;5095697;28;20458;-73
2021/12/18 06:03:00;;;;;;;24.13;12.27;;;;;;;;;;5096718;28;20468;-73
2021/12/18 06:05:26;;;;;;;20.40;10.57;;;;;;;;;;5095417;28;20903;-73
2021/12/18 06:10:19;;;;;;;23.67;11.67;;;;;;;;;;5096650;28;20417;-73
2021/12/18 06:12:45;;;;;;;24.57;12.10;;;;;;;;;;5096632;28;20406;-73
2021/12/18 06:15:11;;;;;;;20.30;10.83;;;;;;;;;;5096653;28;20398;-73
2021/12/18 06:17:37;;;;;;;19.40;10.10;;;;;;;;;;5095274;28;20498;-73
2021/12/18 06:20:03;;;;;;;25.20;12.73;;;;;;;;;;5096511;28;20857;-72
2021/12/18 06:22:29;;;;;;;20.13;11.23;;;;;;;;;;5094994;28;20471;-73
2021/12/18 06:24:55;;;;;;;20.27;10.80;;;;;;;;;;5095136;28;20504;-73
2021/12/18 06:27:22;;;;;;;20.57;11.50;;;;;;;;;;5096333;28;20401;-73
2021/12/18 06:29:49;;;;;;;23.03;11.67;;;;;;;;;;5096293;28;20429;-73
2021/12/18 06:32:15;;;;;;;18.50;10.70;;;;;;;;;;5094973;28;20470;-73
2021/12/18 06:34:41;;;;;;;21.77;12.30;;;;;;;;;;5094853;28;20423;-73
2021/12/18 06:37:07;;;;;;;19.37;11.33;;;;;;;;;;5096081;28;20483;-73
2021/12/18 06:39:33;;;;;;;22.43;11.17;;;;;;;;;;5094708;28;20425;-73
2021/12/18 06:41:59;;;;;;;21.60;10.17;;;;;;;;;;5095863;28;20505;-73
2021/12/18 06:44:25;;;;;;;16.63;9.40;;;;;;;;;;5094698;28;20428;-74
2021/12/18 06:46:51;;;;;;;17.70;9.97;;;;;;;;;;5094750;28;20899;-73
2021/12/18 06:49:17;;;;;;;16.70;9.40;;;;;;;;;;5093659;28;20450;-74
2021/12/18 06:51:43;;;;;;;16.30;8.80;;;;;;;;;;5095751;28;20884;-74
2021/12/18 06:54:09;;;;;;;16.63;9.10;;;;;;;;;;5095774;28;20550;-73
2021/12/18 06:56:35;;;;;;;18.60;9.60;;;;;;;;;;5095559;28;20493;-73
2021/12/18 06:59:01;;;;;;;17.00;9.00;;;;;;;;;;5095543;28;20504;-74
2021/12/18 07:01:27;;;;;;;15.70;7.53;;;;;;;;;;5094415;28;20508;-73
2021/12/18 07:03:53;;;;;;;13.90;6.97;;;;;;;;;;5095432;28;20967;-73
2021/12/18 07:06:19;;;;;;;15.73;7.70;;;;;;;;;;5095561;28;20486;-73
2021/12/18 07:08:45;;;;;;;14.80;8.30;;;;;;;;;;5095504;28;20462;-73
2021/12/18 07:11:11;;;;;;;15.77;7.70;;;;;;;;;;5095409;28;20401;-73
2021/12/18 07:13:37;;;;;;;16.43;8.20;;;;;;;;;;5094156;28;20424;-73
2021/12/18 07:16:03;;;;;;;14.30;7.20;;;;;;;;;;5094125;28;20470;-73
2021/12/18 07:18:30;;;;;;;16.70;7.90;;;;;;;;;;5095202;28;20413;-73
2021/12/18 07:20:56;;;;;;;15.73;7.87;;;;;;;;;;5095213;28;20912;-73
2021/12/18 07:23:24;;;;;;;16.10;8.20;;;;;;;;;;5093850;28;20820;-74
2021/12/18 07:25:50;;;;;;;15.47;8.50;;;;;;;;;;5093994;28;20405;-73
2021/12/18 07:28:16;;;;;;;13.77;6.80;;;;;;;;;;5093794;28;20932;-73
2021/12/18 07:30:42;;;;;;;16.37;7.43;;;;;;;;;;5094898;28;20388;-73
2021/12/18 07:33:10;;;;;;;15.57;8.40;;;;;;;;;;5095161;28;20868;-73
2021/12/18 07:35:40;;;;;;;19.50;9.20;;;;;;;;;;5095138;28;20887;-73
2021/12/18 07:38:06;;;;;;;15.60;7.80;;;;;;;;;;5094861;28;20420;-73
2021/12/18 07:40:32;;;;;;;18.23;9.17;;;;;;;;;;5094805;28;20492;-73
2021/12/18 07:42:58;;;;;;;16.30;8.30;;;;;;;;;;5094680;28;20461;-73
2021/12/18 07:45:24;;;;;;;15.87;7.90;;;;;;;;;;5093566;28;20904;-73
2021/12/18 07:47:50;;;;;;;14.03;7.50;;;;;;;;;;5094731;28;20406;-72
2021/12/18 07:50:20;;;;;;;15.73;8.03;;;;;;;;;;5093509;28;20413;-73
2021/12/18 07:52:49;;;;;;;17.43;8.83;;;;;;;;;;5094778;28;20401;-73
2021/12/18 07:55:16;;;;;;;19.23;8.50;;;;;;;;;;5094637;28;20466;-73
2021/12/18 07:57:42;;;;;;;16.27;8.47;;;;;;;;;;5094311;28;20518;-74
2021/12/18 08:00:09;;;;;;;18.27;8.57;;;;;;;;;;5094049;28;20402;-73
2021/12/18 08:02:35;;;;;;;14.90;7.90;;;;;;;;;;5093017;28;20479;-72
2021/12/18 08:05:02;;;;;;;17.33;7.93;;;;;;;;;;5093089;28;20480;-72
2021/12/18 08:07:29;;;;;;;15.60;7.53;;;;;;;;;;5093014;28;20442;-72
2021/12/18 08:09:55;;;;;;;18.33;8.17;;;;;;;;;;5094402;28;20167;-73
2021/12/18 08:12:21;;;;;;;17.03;8.13;;;;;;;;;;5094314;28;20915;-72
2021/12/18 08:14:47;;;;;;;17.07;8.90;;;;;;;;;;5094269;28;20402;-72
2021/12/18 08:17:13;;;;;;;19.77;8.80;;;;;;;;;;5094252;28;20405;-72
2021/12/18 08:19:40;;;;;;;19.00;8.57;;;;;;;;;;5094087;28;20978;-73
2021/12/18 08:22:06;;;;;;;20.60;9.03;;;;;;;;;;5092735;28;20955;-72
2021/12/18 08:24:32;;;;;;;16.90;8.30;;;;;;;;;;5094066;28;20425;-72
2021/12/18 08:26:58;;;;;;;19.10;8.63;;;;;;;;;;5094112;28;20905;-73
2021/12/18 08:29:24;;;;;;;16.80;8.17;;;;;;;;;;5094151;28;20448;-73
2021/12/18 08:31:54;;;;;;;18.10;8.90;;;;;;;;;;5094057;28;20409;-74
2021/12/18 08:34:20;;;;;;;17.67;8.30;;;;;;;;;;5093886;28;20413;-74
2021/12/18 08:36:46;;;;;;;20.47;9.37;;;;;;;;;;5092547;28;20435;-74
2021/12/18 08:39:12;;;;;;;25.60;10.37;;;;;;;;;;5093645;28;20582;-74
2021/12/18 08:41:39;;;;;;;23.10;8.90;;;;;;;;;;5093817;28;20442;-75
2021/12/18 08:44:05;;;;;;;15.37;7.70;;;;;;;;;;5092380;28;20468;-75
2021/12/18 08:46:31;;;;;;;20.30;9.43;;;;;;;;;;5093777;28;21222;-75
2021/12/18 08:48:57;;;;;;;21.30;9.27;;;;;;;;;;5093636;28;20405;-75
2021/12/18 08:51:23;;;;;;;14.80;7.37;;;;;;;;;;5093688;28;20462;-74
2021/12/18 08:53:49;;;;;;;19.50;9.43;;;;;;;;;;5092382;28;20412;-74
2021/12/18 08:56:15;;;;;;;17.70;8.70;;;;;;;;;;5093299;28;20456;-74
2021/12/18 08:58:41;;;;;;;14.83;8.80;;;;;;;;;;5092208;28;20834;-74
2021/12/18 09:01:07;;;;;;;19.77;9.23;;;;;;;;;;5092139;28;20935;-74
2021/12/18 09:03:33;;;;;;;19.63;8.67;;;;;;;;;;5092112;28;20473;-74
2021/12/18 09:05:59;;;;;;;21.30;9.20;;;;;;;;;;5093470;28;20446;-74
2021/12/18 09:08:25;;;;;;;18.00;9.33;;;;;;;;;;5093308;28;20438;-74
2021/12/18 09:10:52;;;;;;;15.63;8.60;;;;;;;;;;5093070;28;20505;-75
2021/12/18 09:13:18;;;;;;;18.27;8.40;;;;;;;;;;5092982;28;20927;-73
2021/12/18 09:15:44;;;;;;;20.00;9.57;;;;;;;;;;5093333;28;20420;-75
2021/12/18 09:18:10;;;;;;;20.53;8.73;;;;;;;;;;5093263;28;20400;-74
2021/12/18 09:20:36;;;;;;;18.63;9.37;;;;;;;;;;5093077;28;20416;-74
2021/12/18 09:23:02;;;;;;;21.13;9.40;;;;;;;;;;5093180;28;20473;-74
2021/12/18 09:25:29;;;;;;;19.67;9.40;;;;;;;;;;5093344;28;20408;-75
2021/12/18 09:27:56;;;;;;;22.03;10.83;;;;;;;;;;5093272;28;20385;-75
2021/12/18 09:30:23;;;;;;;16.90;9.30;;;;;;;;;;5093100;28;20400;-75
2021/12/18 09:32:49;;;;;;;17.77;9.17;;;;;;;;;;5093086;28;20411;-74
2021/12/18 09:35:15;;;;;;;15.97;8.93;;;;;;;;;;5093154;28;20416;-75
2021/12/18 09:37:41;;;;;;;16.53;8.23;;;;;;;;;;5091764;28;20436;-74
2021/12/18 09:40:08;;;;;;;19.17;9.90;;;;;;;;;;5091816;28;20428;-74
2021/12/18 09:42:34;;;;;;;16.70;9.33;;;;;;;;;;5092967;28;20463;-74
2021/12/18 09:45:00;;;;;;;16.80;10.03;;;;;;;;;;5091655;28;20413;-74
2021/12/18 09:47:26;;;;;;;17.00;9.50;;;;;;;;;;5091874;28;20409;-73
2021/12/18 09:49:54;;;;;;;18.40;9.83;;;;;;;;;;5091677;28;21030;-74
2021/12/18 09:52:20;;;;;;;19.10;9.70;;;;;;;;;;5092931;28;20409;-74
2021/12/18 09:54:46;;;;;;;20.10;10.77;;;;;;;;;;5093006;28;20410;-75
2021/12/18 09:57:13;;;;;;;19.53;9.83;;;;;;;;;;5091494;28;20967;-74
2021/12/18 09:59:39;;;;;;;20.53;9.47;;;;;;;;;;5092873;28;20488;-74
2021/12/18 10:02:06;;;;;;;17.97;9.80;;;;;;;;;;5092669;28;20397;-74
2021/12/18 10:04:36;;;;;;;15.23;9.43;;;;;;;;;;5092872;28;20397;-74
2021/12/18 10:07:14;;;;;;;15.37;8.40;;;;;;;;;;5092693;28;20501;-75
2021/12/18 10:09:40;;;;;;;17.40;9.53;;;;;;;;;;5092987;28;20896;-74
2021/12/18 10:12:14;;;;;;;14.20;8.53;;;;;;;;;;5091477;28;20416;-74
2021/12/18 10:14:58;;;;;;;19.90;9.00;;;;;;;;;;5092775;28;20403;-73
2021/12/18 10:17:34;;;;;;;18.00;8.90;;;;;;;;;;5092642;28;20389;-73
2021/12/18 10:20:09;;;;;;;14.90;8.30;;;;;;;;;;5092667;28;20396;-73
2021/12/18 10:22:36;;;;;;;14.43;8.40;;;;;;;;;;5093147;28;20447;-74
2021/12/18 10:25:07;;;;;;;18.60;9.57;;;;;;;;;;5096359;28;20492;-74
2021/12/18 10:27:34;;;;;;;15.57;8.10;;;;;;;;;;5096177;28;20832;-74
2021/12/18 10:30:12;;;;;;;18.57;9.33;;;;;;;;;;5096437;28;20400;-75
2021/12/18 10:32:38;;;;;;;16.43;8.43;;;;;;;;;;5094949;28;20407;-74
2021/12/18 10:35:05;;;;;;;14.27;7.37;;;;;;;;;;5096272;28;20490;-73
2021/12/18 10:37:32;;;;;;;15.10;7.90;;;;;;;;;;5095987;28;20431;-74
2021/12/18 10:40:00;;;;;;;15.00;8.27;;;;;;;;;;5096044;28;20416;-74
2021/12/18 10:42:26;;;;;;;14.27;7.90;;;;;;;;;;5095988;28;20453;-74
2021/12/18 10:45:06;;;;;;;14.97;8.80;;;;;;;;;;5094604;28;20435;-74
2021/12/18 10:47:46;;;;;;;15.13;8.73;;;;;;;;;;5094553;28;20410;-75
2021/12/18 10:50:18;;;;;;;12.97;8.23;;;;;;;;;;5095897;28;20400;-75
2021/12/18 10:52:44;;;;;;;15.07;7.73;;;;;;;;;;5094703;28;20919;-76
2021/12/18 10:55:10;;;;;;;16.30;8.30;;;;;;;;;;5095641;28;20404;-73
2021/12/18 10:57:36;;;;;;;15.53;9.17;;;;;;;;;;5094275;28;20554;-74
2021/12/18 11:00:02;;;;;;;13.27;8.20;;;;;;;;;;5095675;28;20489;-73
2021/12/18 11:02:28;;;;;;;15.97;8.90;;;;;;;;;;5095560;28;20552;-74
2021/12/18 11:05:12;;;;;;;14.53;8.57;;;;;;;;;;5095640;28;20963;-74
2021/12/18 11:07:42;;;;;;;16.03;8.10;;;;;;;;;;5095541;28;20511;-74
2021/12/18 11:10:42;;;;;;;15.40;8.60;;;;;;;;;;5095546;28;20493;-73
2021/12/18 11:15:54;;;;;;;14.47;8.60;;;;;;;;;;5095736;28;20402;-74
2021/12/18 11:18:20;;;;;;;13.37;8.37;;;;;;;;;;5093998;28;20481;-74
2021/12/18 11:20:51;;;;;;;19.33;8.97;;;;;;;;;;5093916;28;20430;-75
2021/12/18 11:23:21;;;;;;;12.87;7.97;;;;;;;;;;5095324;28;20467;-74
2021/12/18 11:25:48;;;;;;;17.70;8.93;;;;;;;;;;5095695;28;20809;-74
2021/12/18 11:28:14;;;;;;;15.00;7.50;;;;;;;;;;5095142;28;20404;-75
2021/12/18 11:30:40;;;;;;;13.93;8.27;;;;;;;;;;5095040;28;20407;-75
2021/12/18 11:33:07;;;;;;;11.90;7.43;;;;;;;;;;5094961;28;20409;-73
2021/12/18 11:35:33;;;;;;;13.23;7.90;;;;;;;;;;5094497;28;20413;-74
2021/12/18 11:38:03;;;;;;;13.23;7.77;;;;;;;;;;5094865;28;20412;-75
2021/12/18 11:40:31;;;;;;;15.37;7.70;;;;;;;;;;5093607;28;20407;-74
2021/12/18 11:42:57;;;;;;;14.60;9.10;;;;;;;;;;5093781;28;20462;-74
2021/12/18 11:45:30;;;;;;;14.90;7.50;;;;;;;;;;5093539;28;20408;-74
2021/12/18 11:47:59;;;;;;;14.33;8.70;;;;;;;;;;5094736;28;20502;-76
2021/12/18 11:50:34;;;;;;;15.10;8.23;;;;;;;;;;5093488;28;20915;-73
2021/12/18 11:53:05;;;;;;;14.87;8.10;;;;;;;;;;5093830;28;20473;-72
2021/12/18 11:55:36;;;;;;;14.20;7.83;;;;;;;;;;5095132;28;20549;-75
2021/12/18 11:58:16;;;;;;;13.87;7.63;;;;;;;;;;5092971;28;20461;-74
2021/12/18 12:00:44;;;;;;;14.97;8.50;;;;;;;;;;5094410;28;20419;-73
2021/12/18 12:03:12;;;;;;;13.60;7.23;;;;;;;;;;5094384;28;20475;-73
2021/12/18 12:05:40;;;;;;;14.70;8.07;;;;;;;;;;5094410;28;20414;-73
2021/12/18 12:08:18;;;;;;;13.50;7.70;;;;;;;;;;5093030;28;20432;-73
2021/12/18 12:11:06;;;;;;;13.90;8.17;;;;;;;;;;5094198;28;20442;-74
2021/12/18 12:13:51;;;;;;;13.90;7.83;;;;;;;;;;5092943;28;20413;-73
2021/12/18 12:16:17;;;;;;;14.20;8.33;;;;;;;;;;5094206;28;20895;-73
2021/12/18 12:19:02;;;;;;;16.80;7.93;;;;;;;;;;5092771;28;20752;-73
2021/12/18 12:21:37;;;;;;;15.23;8.23;;;;;;;;;;5092729;28;20403;-73
2021/12/18 12:24:03;;;;;;;14.43;8.20;;;;;;;;;;5094136;28;20466;-74
2021/12/18 12:26:29;;;;;;;11.67;7.73;;;;;;;;;;5093902;28;20417;-76
2021/12/18 12:28:55;;;;;;;14.70;9.17;;;;;;;;;;5093956;28;20428;-73
2021/12/18 12:31:22;;;;;;;11.50;6.93;;;;;;;;;;5093895;28;20452;-73
2021/12/18 12:33:49;;;;;;;15.70;8.60;;;;;;;;;;5093917;28;20423;-75
2021/12/18 12:36:29;;;;;;;15.97;8.53;;;;;;;;;;5093924;28;20410;-73
2021/12/18 12:38:58;;;;;;;15.93;8.20;;;;;;;;;;5092302;28;20472;-73
2021/12/18 12:41:25;;;;;;;13.67;8.43;;;;;;;;;;5093641;28;20488;-74
2021/12/18 12:43:51;;;;;;;14.57;8.13;;;;;;;;;;5093683;28;20558;-74
2021/12/18 12:46:18;;;;;;;12.80;7.33;;;;;;;;;;5091792;28;20412;-74
2021/12/18 12:49:18;;;;;;;16.70;9.00;;;;;;;;;;5092445;28;20432;-72
2021/12/18 12:52:03;;;;;;;13.07;7.87;;;;;;;;;;5049557;28;20416;-73
2021/12/18 12:54:38;;;;;;;12.90;8.33;;;;;;;;;;5093600;28;20403;-73
2021/12/18 12:57:26;;;;;;;12.17;8.27;;;;;;;;;;5092004;28;20462;-74
2021/12/18 12:59:58;;;;;;;12.57;8.10;;;;;;;;;;5080284;28;20526;-73
2021/12/18 13:02:29;;;;;;;12.47;7.93;;;;;;;;;;5092096;28;20492;-74
2021/12/18 13:05:01;;;;;;;14.27;8.87;;;;;;;;;;5093359;28;20434;-74
2021/12/18 13:07:27;;;;;;;16.80;9.03;;;;;;;;;;5093332;28;20424;-74
2021/12/18 13:09:53;;;;;;;16.10;9.17;;;;;;;;;;5093168;28;20492;-74
2021/12/18 13:12:19;;;;;;;14.80;9.50;;;;;;;;;;5091151;28;20417;-75
2021/12/18 13:14:46;;;;;;;14.37;8.83;;;;;;;;;;5080485;28;20435;-70
2021/12/18 13:17:26;;;;;;;16.00;9.50;;;;;;;;;;5076820;28;20419;-74
2021/12/18 13:19:52;;;;;;;19.73;9.50;;;;;;;;;;5073137;28;20406;-73
2021/12/18 13:22:21;;;;;;;15.10;9.03;;;;;;;;;;5081389;28;20451;-72
2021/12/18 13:25:00;;;;;;;16.03;9.20;;;;;;;;;;5093432;28;20807;-71
2021/12/18 13:27:26;;;;;;;15.10;9.03;;;;;;;;;;5093165;28;20411;-71
2021/12/18 13:30:11;;;;;;;21.93;9.50;;;;;;;;;;5091410;28;20409;-71
2021/12/18 13:32:37;;;;;;;19.57;9.33;;;;;;;;;;5074402;28;20417;-69
2021/12/18 13:35:12;;;;;;;14.67;8.73;;;;;;;;;;5085043;28;20499;-70
2021/12/18 13:37:38;;;;;;;17.63;9.53;;;;;;;;;;5090455;28;20428;-69
2021/12/18 13:40:13;;;;;;;17.37;9.60;;;;;;;;;;5084694;28;20432;-73
2021/12/18 13:42:39;;;;;;;18.17;9.40;;;;;;;;;;5101626;28;20451;-73
2021/12/18 13:45:05;;;;;;;19.30;10.40;;;;;;;;;;5092330;28;20998;-70
2021/12/18 13:47:33;;;;;;;18.97;9.67;;;;;;;;;;5075850;28;20764;-70
2021/12/18 13:50:11;;;;;;;22.70;10.40;;;;;;;;;;5071894;28;20409;-73
2021/12/18 13:52:38;;;;;;;21.73;10.80;;;;;;;;;;5086706;28;20495;-74
2021/12/18 13:55:23;;;;;;;18.27;10.00;;;;;;;;;;5092806;28;20401;-72
2021/12/18 13:58:09;;;;;;;18.20;9.40;;;;;;;;;;5102771;28;20869;-72
2021/12/18 14:00:51;;;;;;;17.47;9.90;;;;;;;;;;5081064;28;20834;-74
2021/12/18 14:03:21;;;;;;;17.10;9.10;;;;;;;;;;5075017;28;20465;-74
2021/12/18 14:05:48;;;;;;;16.77;9.37;;;;;;;;;;5083959;28;20495;-74
2021/12/18 14:08:15;;;;;;;15.20;8.57;;;;;;;;;;5095152;28;20460;-73
2021/12/18 14:10:42;;;;;;;16.67;10.00;;;;;;;;;;5079378;28;20490;-73
2021/12/18 14:13:08;;;;;;;21.33;10.60;;;;;;;;;;5076111;28;20425;-74
2021/12/18 14:15:34;;;;;;;18.30;10.40;;;;;;;;;;5080071;28;21305;-74
2021/12/18 14:18:00;;;;;;;14.90;8.97;;;;;;;;;;5096566;28;20780;-74
2021/12/18 14:20:27;;;;;;;18.50;11.17;;;;;;;;;;5087536;28;20405;-74
2021/12/18 14:22:58;;;;;;;16.17;9.67;;;;;;;;;;5076070;28;20979;-72
2021/12/18 14:25:24;;;;;;;21.00;10.40;;;;;;;;;;5076096;28;20406;-73
2021/12/18 14:27:52;;;;;;;17.27;10.37;;;;;;;;;;5075980;28;20389;-72
2021/12/18 14:30:26;;;;;;;21.60;10.10;;;;;;;;;;5075440;28;20502;-72
2021/12/18 14:32:53;;;;;;;21.10;9.73;;;;;;;;;;5086595;28;20423;-74
2021/12/18 14:35:19;;;;;;;17.87;9.37;;;;;;;;;;5096007;28;20808;-73
2021/12/18 14:37:59;;;;;;;17.60;9.20;;;;;;;;;;5096042;28;20412;-73
2021/12/18 14:40:27;;;;;;;20.73;12.27;;;;;;;;;;5090071;28;20776;-71
2021/12/18 14:43:00;;;;;;;19.80;10.30;;;;;;;;;;5085232;28;21009;-73
2021/12/18 14:45:31;;;;;;;17.03;10.50;;;;;;;;;;5095890;28;20409;-73
2021/12/18 14:47:58;;;;;;;17.27;10.33;;;;;;;;;;5090460;28;20471;-74
2021/12/18 14:50:28;;;;;;;17.77;10.03;;;;;;;;;;5076221;28;20505;-74
2021/12/18 14:53:03;;;;;;;15.70;9.30;;;;;;;;;;5093032;28;20797;-74
2021/12/18 14:55:38;;;;;;;18.57;8.77;;;;;;;;;;5077097;28;20421;-72
2021/12/18 14:58:08;;;;;;;17.23;9.60;;;;;;;;;;5082298;28;20464;-75
2021/12/18 15:00:43;;;;;;;15.13;8.73;;;;;;;;;;5094308;28;20931;-73
2021/12/18 15:03:28;;;;;;;17.73;10.20;;;;;;;;;;5087908;28;20469;-73
2021/12/18 15:05:56;;;;;;;18.20;9.63;;;;;;;;;;5087197;28;20447;-72
2021/12/18 15:08:35;;;;;;;15.53;9.37;;;;;;;;;;5086588;28;20180;-72
2021/12/18 15:11:10;;;;;;;15.37;9.10;;;;;;;;;;5073168;28;20548;-72
2021/12/18 15:13:40;;;;;;;23.25;11.30;;;;;;;;;;5085307;28;20450;-75
2021/12/18 15:16:06;;;;;;;19.10;10.20;;;;;;;;;;5080118;28;20174;-75